AirNav   Phillips 66 Aviation Fuel
 
 547 users online  

CL35 Warner Springs Gliderport
Warner Springs, California, USA

GOING TO WARNER SPRINGS?


FAA INFORMATION EFFECTIVE 21 JUNE 2018

Location

FAA Identifier: CL35
Lat/Long: 33-17-04.2100N / 116-40-10.7650W
33-17.070167N / 116-40.179417W
33.2845028 / -116.6696569
(estimated)
Elevation: 2880 ft. / 878 m (estimated)
Variation: 13E (1985)
From city: 2 miles E of WARNER SPRINGS, CA
Time zone: UTC -7 (UTC -8 during Standard Time)
Zip code: 92086

Gliderport Operations

Gliderport use: Private use. Permission required prior to landing
Activation date: 10/1984
Control tower: no
ARTCC: LOS ANGELES CENTER
FSS: SAN DIEGO FLIGHT SERVICE STATION
Attendance: 0900-1700
Wind indicator: yes
Segmented circle: yes
Landing fee: yes

Gliderport Communications

UNICOM: 122.8
WX AWOS-3 at L08 (18 nm E): 126.575 (760-767-3308)
WX ASOS at RNM (19 nm SW): 132.025 (760-789-0736)

Nearby radio navigation aids

VOR radial/distance  VOR name  Freq  Var
JLIr319/9.6JULIAN VORTAC114.0015E
TRMr218/32.8THERMAL VORTAC116.2013E
PSPr186/37.1PALM SPRINGS VORTAC115.5013E
OCNr071/37.6OCEANSIDE VORTAC115.3015E
HDFr125/(39.2)HOMELAND VOR113.4014E

Gliderport Services

Runway Information

Runway 8/26

Dimensions: 3500 x 70 ft. / 1067 x 21 m
Surface: asphalt
RUNWAY 8  RUNWAY 26
Latitude: 33-17.060333N33-17.080000N
Longitude: 116-40.522667W116-39.836167W
Elevation: 2873.0 ft.2914.0 ft.
Traffic pattern: leftleft
Obstructions: none200 ft. hill, 5200 ft. from runway

Gliderport Ownership and Management from official FAA records

Ownership: Privately-owned
Owner: WARNER SPRINGS RANCH RESORT, LLC
31930 HWY 79
WARNER SPRINGS, CA 92086
Phone 760-782-4200
SKY SAILING 31930 HWY 79.
Manager: BRET WILLAT
SKY SAILING 31930 HWY 79
WARNER SPRINGS, CA 92086
Phone 760-782-0404
LEASEE.

Gliderport Operational Statistics

Aircraft based on the field: 80
Single engine airplanes: 10
Gliders airplanes: 70
    

Instrument Procedures

There are no published instrument procedures at CL35.

Some nearby airports with instrument procedures:

L08 - Borrego Valley Airport (18 nm E)
KRNM - Ramona Airport (19 nm SW)
F70 - French Valley Airport (29 nm NW)
L18 - Fallbrook Community Airpark (29 nm W)
KSEE - Gillespie Field Airport (31 nm SW)
 
Loc | Ops | Rwys | IFR | FBO | Links
Com | Nav | Svcs | Stats | Notes

AirNav Hotels Sweepstakes
 
Area around CL35 (Warner Springs Gliderport)
 
Road maps at: MapQuest Bing Google
 
Aerial photo
WARNING: Photo may not be current or correct
Aerial photo of CL35 (Warner Springs Gliderport)
Photo by Steve Lupinacci
Photo taken 27-May-2008

Do you have a better or more recent aerial photo of Warner Springs Gliderport that you would like to share? If so, please send us your photo.

 
Sectional chart

 
Airport distance calculator
Flying to Warner Springs Gliderport? Find the distance to fly.

From to CL35

Sunrise and sunset
Times for 23-Jun-2018
 Local
(UTC-7)
 Zulu
(UTC)
Morning civil twilight05:1012:10
Sunrise05:3912:39
Sunset19:5902:59
Evening civil twilight20:2703:27

Current date and time
Zulu (UTC)  24-Jun-2018 05:24:45
Local (UTC-7)  23-Jun-2018 22:24:45
 
METAR
KRNM 
20nm SW 
240453Z AUTO 32005KT 10SM CLR 14/12 A2988 RMK AO2 SLP107 T01440122
KF70 
29nm NW 
240455Z AUTO 19003KT 10SM BKN009 15/13 A2989 RMK AO1
KL18 
29nm W 
240455Z AUTO 24004KT 10SM OVC012 16/13 A2988 RMK AO2
KSEE 
32nm SW 
240455Z AUTO 27005KT 10SM OVC015 17/14 A2987 RMK AO2
KCRQ 
32nm W 
240453Z 21007KT 10SM OVC014 17/14 A2987 RMK AO2 SLP112 T01670139
KTRM 
33nm NE 
240452Z AUTO 20004KT 10SM CLR 31/14 A2964 RMK AO2 SLP041 T03110144
KPSP 
33nm N 
240453Z AUTO 32011KT 10SM CLR 32/12 A2970 RMK AO2 SLP052 T03220122
KNFG 
33nm W 
240455Z AUTO 22004KT 10SM OVC016 17/14 A2987 RMK AO2 SLP115 T01720144
KNKX 
34nm SW 
240455Z 20007KT 10SM OVC012 18/13 A2988 RMK AO2 SLP113 T01830133
KOKB 
34nm W 
240452Z AUTO 21006KT 10SM OVC016 18/14 A2987 RMK AO2 SLP114 T01780139
TAF
KCRQ 
32nm W 
232207Z 2322/2418 21011G18KT P6SM OVC014 TEMPO 2409/2413 18006KT 3SM BR OVC007
KTRM 
33nm NE 
231734Z 2318/2418 15010KT P6SM SKC FM240300 33013KT P6SM SKC FM240700 VRB05KT P6SM SKC
KPSP 
33nm N 
231734Z 2318/2418 08008KT P6SM SKC FM232300 32015G25KT P6SM SKC FM240700 VRB05KT P6SM SKC
KNFG 
33nm W 
2403/2503 VRB05KT 9999 OVC015 QNH2983INS BECMG 2415/2417 21007KT 9999 SCT015 QNH2991INS AUTOMATED SENSOR METWATCH 2403 TIL 2515 T17/2412Z T25/2421Z
KNKX 
34nm SW 
2403/2503 21007KT 9999 BKN015 QNH2983INS TEMPO 2403/2409 8000 BR OVC009 FM241630 21007KT 9999 SCT015 QNH2991INS T17/2412Z T24/2421Z
NOTAMs
Click for the latest NOTAMs
NOTAMs are issued by the DoD/FAA and will open in a separate window not controlled by AirNav.

 

 
 

Would you like to see your business listed on this page?

 If your business provides an interesting product or service to pilots, flight crews, aircraft, or users of the Warner Springs Gliderport, you should consider listing it here.  To start the listing process, click on the button below
 
Add a business
 

Other Pages about Warner Springs Gliderport

www.agcsc.org/warner_springs_info.html
 
Update a link
 
Copyright © AirNav, LLC. All rights reserved. Privacy Policy  Contact